Time;durP1;ratioP1;P1;durP2;ratioP2;P2;SDS_P1;SDS_P2;PMS_P1;PMS_P2;Temp;Humidity;BMP_temperature;BMP_pressure;BME280_temperature;BME280_humidity;BME280_pressure;Samples;Min_cycle;Max_cycle;Signal;HPM_P1;HPM_P2
2023/07/27 00:01:45;;;;;;;;;;;15.50;99.90;;;;;;5013689;28;19921;-66
2023/07/27 00:04:13;;;;;;;;;;;15.40;99.90;;;;;;5011716;28;19928;-66
2023/07/27 00:06:41;;;;;;;;;;;15.40;99.90;;;;;;5011488;28;19944;-67
2023/07/27 00:09:08;;;;;;;;;;;15.40;99.90;;;;;;5011944;28;20005;-65
2023/07/27 00:11:36;;;;;;;;;;;15.50;99.90;;;;;;5010752;28;20591;-65
2023/07/27 00:14:04;;;;;;;;;;;15.50;99.90;;;;;;5014506;28;19921;-66
2023/07/27 00:16:32;;;;;;;;;;;15.50;99.90;;;;;;5031376;28;19975;-66
2023/07/27 00:19:02;;;;;;;;;;;15.50;99.90;;;;;;5027387;28;20388;-67
2023/07/27 00:21:29;;;;;;;;;;;15.60;99.90;;;;;;5021133;28;19925;-70
2023/07/27 00:23:57;;;;;;;;;;;15.70;99.90;;;;;;5031411;28;19924;-67
2023/07/27 00:26:25;;;;;;;;;;;15.70;99.90;;;;;;5025702;28;20300;-67
2023/07/27 00:28:52;;;;;;;;;;;15.70;99.90;;;;;;5029291;28;19935;-67
2023/07/27 00:31:20;;;;;;;;;;;15.60;99.90;;;;;;5031132;28;20327;-67
2023/07/27 00:33:49;;;;;;;;;;;15.60;99.90;;;;;;5031255;28;20303;-67
2023/07/27 00:36:18;;;;;;;;;;;15.70;99.90;;;;;;5022963;28;19929;-68
2023/07/27 00:38:45;;;;;;;;;;;15.70;99.90;;;;;;5025139;28;19921;-68
2023/07/27 00:41:13;;;;;;;;;;;15.80;99.90;;;;;;5029116;28;19924;-67
2023/07/27 00:43:41;;;;;;;;;;;15.70;99.90;;;;;;5031339;28;19921;-67
2023/07/27 00:46:09;;;;;;;;;;;15.80;99.90;;;;;;5033993;28;19921;-68
2023/07/27 00:48:39;;;;;;;;;;;15.70;99.90;;;;;;5035418;28;19964;-68
2023/07/27 00:51:07;;;;;;;;;;;15.70;99.90;;;;;;5034792;28;19920;-68
2023/07/27 00:53:36;;;;;;;;;;;15.80;99.90;;;;;;5021018;28;19934;-67
2023/07/27 00:56:04;;;;;;;;;;;15.80;99.90;;;;;;5028539;28;19979;-67
2023/07/27 00:58:32;;;;;;;;;;;15.80;99.90;;;;;;5029605;28;19921;-67
2023/07/27 01:01:00;;;;;;;;;;;15.70;99.90;;;;;;5034779;28;20351;-66
2023/07/27 01:03:28;;;;;;;;;;;15.80;99.90;;;;;;5035022;28;19920;-66
2023/07/27 01:05:56;;;;;;;;;;;15.80;99.90;;;;;;5034509;28;19921;-67
2023/07/27 01:08:24;;;;;;;;;;;15.90;99.90;;;;;;5035155;28;19921;-68
2023/07/27 01:10:56;;;;;;;;;;;15.90;99.90;;;;;;5018449;28;20360;-66
2023/07/27 01:13:26;;;;;;;;;;;16.00;99.90;;;;;;5028805;28;20390;-66
2023/07/27 01:15:57;;;;;;;;;;;16.00;99.90;;;;;;5034430;28;19928;-68
2023/07/27 01:18:28;;;;;;;;;;;16.00;99.90;;;;;;5034874;28;19961;-66
2023/07/27 01:21:01;;;;;;;;;;;15.90;99.90;;;;;;5034658;28;20339;-66
2023/07/27 01:24:03;;;;;;;;;;;16.00;99.90;;;;;;5034773;28;20339;-68
2023/07/27 01:26:39;;;;;;;;;;;15.90;99.90;;;;;;5008555;28;19928;-67
2023/07/27 01:29:13;;;;;;;;;;;15.90;99.90;;;;;;5019360;28;19929;-67
2023/07/27 01:31:43;;;;;;;;;;;15.90;99.90;;;;;;5034596;28;19929;-67
2023/07/27 01:34:14;;;;;;;;;;;15.90;99.90;;;;;;5034231;28;19988;-68
2023/07/27 01:36:42;;;;;;;;;;;16.00;99.90;;;;;;5034175;28;19921;-67
2023/07/27 01:39:11;;;;;;;;;;;16.00;99.90;;;;;;5034280;28;19971;-68
2023/07/27 01:41:41;;;;;;;;;;;16.00;99.90;;;;;;5032260;28;20410;-67
2023/07/27 01:44:10;;;;;;;;;;;16.00;99.90;;;;;;5030379;28;19921;-65
2023/07/27 01:46:39;;;;;;;;;;;16.00;99.90;;;;;;5028716;28;19948;-67
2023/07/27 01:49:09;;;;;;;;;;;16.00;99.90;;;;;;5034120;28;19921;-67
2023/07/27 01:51:38;;;;;;;;;;;16.00;99.90;;;;;;5034036;28;19925;-65
2023/07/27 01:54:06;;;;;;;;;;;16.10;99.90;;;;;;5033934;28;19928;-66
2023/07/27 01:56:34;;;;;;;;;;;16.10;99.90;;;;;;5023975;28;20539;-65
2023/07/27 01:59:02;;;;;;;;;;;16.10;99.90;;;;;;5031666;28;19925;-65
2023/07/27 02:01:30;;;;;;;;;;;16.10;99.90;;;;;;5032401;28;19921;-66
2023/07/27 02:03:59;;;;;;;;;;;16.00;99.90;;;;;;5033850;28;19921;-65
2023/07/27 02:06:28;;;;;;;;;;;16.00;99.90;;;;;;5033528;28;19986;-66
2023/07/27 02:08:56;;;;;;;;;;;16.00;99.90;;;;;;5033521;28;19921;-66
2023/07/27 02:11:24;;;;;;;;;;;15.90;99.90;;;;;;5023346;28;20273;-66
2023/07/27 02:13:55;;;;;;;;;;;16.00;99.90;;;;;;5033701;28;19925;-65
2023/07/27 02:16:28;;;;;;;;;;;16.00;99.90;;;;;;5033370;28;20295;-66
2023/07/27 02:18:56;;;;;;;;;;;16.00;99.90;;;;;;5031625;28;19921;-66
2023/07/27 02:21:25;;;;;;;;;;;16.00;99.90;;;;;;5033672;28;19955;-66
2023/07/27 02:23:54;;;;;;;;;;;16.00;99.90;;;;;;5033523;28;19925;-66
2023/07/27 02:26:22;;;;;;;;;;;16.00;99.90;;;;;;5022014;28;19925;-68
2023/07/27 02:28:50;;;;;;;;;;;16.00;99.90;;;;;;5029862;28;19987;-67
2023/07/27 02:31:18;;;;;;;;;;;16.10;99.90;;;;;;5026074;28;19948;-65
2023/07/27 02:33:45;;;;;;;;;;;16.00;99.90;;;;;;5033315;28;19921;-65
2023/07/27 02:36:13;;;;;;;;;;;16.10;99.90;;;;;;5030433;28;19921;-66
2023/07/27 02:38:41;;;;;;;;;;;16.00;99.90;;;;;;5033121;28;19964;-66
2023/07/27 02:41:11;;;;;;;;;;;16.00;99.90;;;;;;5031314;28;19925;-66
2023/07/27 02:43:39;;;;;;;;;;;16.10;99.90;;;;;;5033350;28;19975;-66
2023/07/27 02:46:08;;;;;;;;;;;16.00;99.90;;;;;;5032776;28;19967;-66
2023/07/27 02:48:36;;;;;;;;;;;16.10;99.90;;;;;;5033058;28;19920;-66
2023/07/27 02:51:04;;;;;;;;;;;16.10;99.90;;;;;;5032628;28;19921;-66
2023/07/27 02:53:32;;;;;;;;;;;16.00;99.90;;;;;;5030244;28;19925;-66
2023/07/27 02:56:00;;;;;;;;;;;16.00;99.90;;;;;;5029090;28;19929;-70
2023/07/27 02:58:29;;;;;;;;;;;16.10;99.90;;;;;;5025416;28;19928;-66
2023/07/27 03:00:58;;;;;;;;;;;16.10;99.90;;;;;;5032622;28;19921;-65
2023/07/27 03:03:26;;;;;;;;;;;16.20;99.90;;;;;;5032884;28;19990;-67
2023/07/27 03:05:58;;;;;;;;;;;16.20;99.90;;;;;;5032518;28;19925;-67
2023/07/27 03:08:25;;;;;;;;;;;16.10;99.90;;;;;;5015405;28;19925;-66
2023/07/27 03:10:53;;;;;;;;;;;16.10;99.90;;;;;;5025387;28;20358;-67
2023/07/27 03:13:21;;;;;;;;;;;16.10;99.90;;;;;;5032439;28;19924;-67
2023/07/27 03:15:50;;;;;;;;;;;16.10;99.90;;;;;;5032414;28;20375;-67
2023/07/27 03:18:18;;;;;;;;;;;16.10;99.90;;;;;;5031990;28;19929;-67
2023/07/27 03:20:46;;;;;;;;;;;16.20;99.90;;;;;;5032467;28;19929;-66
2023/07/27 03:23:13;;;;;;;;;;;16.10;99.90;;;;;;5029667;28;20372;-67
2023/07/27 03:25:41;;;;;;;;;;;16.10;99.90;;;;;;5020872;28;19921;-68
2023/07/27 03:28:09;;;;;;;;;;;16.10;99.90;;;;;;5022024;28;19921;-67
2023/07/27 03:30:38;;;;;;;;;;;16.20;99.90;;;;;;5032287;28;19921;-67
2023/07/27 03:33:07;;;;;;;;;;;16.20;99.90;;;;;;5032130;28;19921;-66
2023/07/27 03:35:35;;;;;;;;;;;16.20;99.90;;;;;;5032274;28;19921;-66
2023/07/27 03:38:03;;;;;;;;;;;16.20;99.90;;;;;;5029053;28;19921;-67
2023/07/27 03:40:31;;;;;;;;;;;16.20;99.90;;;;;;5032187;28;19947;-67
2023/07/27 03:42:58;;;;;;;;;;;16.20;99.90;;;;;;5028478;28;20391;-67
2023/07/27 03:45:26;;;;;;;;;;;16.20;99.90;;;;;;5016110;28;20009;-67
2023/07/27 03:47:54;;;;;;;;;;;16.20;99.90;;;;;;5031499;28;20392;-67
2023/07/27 03:50:23;;;;;;;;;;;16.30;99.90;;;;;;5031634;28;19921;-67
2023/07/27 03:52:51;;;;;;;;;;;16.20;99.90;;;;;;5029195;28;19925;-67
2023/07/27 03:55:19;;;;;;;;;;;16.20;99.90;;;;;;5027386;28;19921;-67
2023/07/27 03:57:48;;;;;;;;;;;16.20;99.90;;;;;;5030098;28;19924;-64
2023/07/27 04:00:16;;;;;;;;;;;16.20;99.90;;;;;;5023227;28;19921;-66
2023/07/27 04:02:44;;;;;;;;;;;16.30;99.90;;;;;;5026182;28;19920;-66
2023/07/27 04:05:11;;;;;;;;;;;16.30;99.90;;;;;;5032508;28;19924;-67
2023/07/27 04:07:41;;;;;;;;;;;16.40;99.90;;;;;;5027891;28;19928;-68
2023/07/27 04:10:09;;;;;;;;;;;16.50;99.90;;;;;;5019149;28;20339;-66
2023/07/27 04:12:37;;;;;;;;;;;16.50;99.90;;;;;;5022572;28;19929;-65
2023/07/27 04:15:06;;;;;;;;;;;16.40;99.90;;;;;;5028289;28;19921;-66
2023/07/27 04:17:33;;;;;;;;;;;16.40;99.90;;;;;;5022509;28;19928;-64
2023/07/27 04:20:01;;;;;;;;;;;16.40;99.90;;;;;;5010276;28;19929;-65
2023/07/27 04:22:29;;;;;;;;;;;16.30;99.90;;;;;;5018040;28;19947;-66
2023/07/27 04:24:58;;;;;;;;;;;16.30;99.90;;;;;;5018879;28;20407;-65
2023/07/27 04:27:26;;;;;;;;;;;16.30;99.90;;;;;;5019851;28;19968;-64
2023/07/27 04:29:54;;;;;;;;;;;16.30;99.90;;;;;;5020490;28;20022;-64
2023/07/27 04:32:22;;;;;;;;;;;16.30;99.90;;;;;;5018676;28;20348;-68
2023/07/27 04:34:50;;;;;;;;;;;16.30;99.90;;;;;;5017722;28;19929;-65
2023/07/27 04:37:17;;;;;;;;;;;16.30;99.90;;;;;;5019532;28;19936;-64
2023/07/27 04:39:45;;;;;;;;;;;16.40;99.90;;;;;;5018101;28;19940;-65
2023/07/27 04:42:14;;;;;;;;;;;16.40;99.90;;;;;;5017664;28;19935;-64
2023/07/27 04:44:43;;;;;;;;;;;16.40;99.90;;;;;;5020087;28;19940;-64
2023/07/27 04:47:11;;;;;;;;;;;16.50;99.90;;;;;;5019551;28;19921;-65
2023/07/27 04:49:38;;;;;;;;;;;16.50;99.90;;;;;;5014949;28;19928;-64
2023/07/27 04:52:07;;;;;;;;;;;16.50;99.90;;;;;;5020140;22;19929;-69
2023/07/27 04:54:34;;;;;;;;;;;16.50;99.90;;;;;;4996697;28;19929;-69
2023/07/27 04:57:02;;;;;;;;;;;16.50;99.90;;;;;;4997127;28;19929;-70
2023/07/27 04:59:32;;;;;;;;;;;16.50;99.90;;;;;;4996864;28;19980;-70
2023/07/27 05:01:59;;;;;;;;;;;16.50;99.90;;;;;;4994545;28;19930;-69
2023/07/27 05:04:27;;;;;;;;;;;16.60;99.90;;;;;;4994970;28;20054;-70
2023/07/27 05:06:55;;;;;;;;;;;16.60;99.90;;;;;;4995449;28;19929;-69
2023/07/27 05:09:23;;;;;;;;;;;16.70;99.90;;;;;;4994437;28;19933;-69
2023/07/27 05:11:51;;;;;;;;;;;16.80;99.90;;;;;;4994110;28;20832;-69
2023/07/27 05:14:19;;;;;;;;;;;16.80;99.90;;;;;;4997078;28;20341;-70
2023/07/27 05:16:48;;;;;;;;;;;16.70;99.90;;;;;;4996433;28;19929;-69
2023/07/27 05:19:16;;;;;;;;;;;16.80;99.90;;;;;;4994648;28;20012;-70
2023/07/27 05:21:44;;;;;;;;;;;16.90;99.90;;;;;;4993058;28;19926;-69
2023/07/27 05:24:12;;;;;;;;;;;16.90;99.90;;;;;;4996309;28;19933;-69
2023/07/27 05:26:39;;;;;;;;;;;16.90;99.90;;;;;;4993778;28;20434;-69
2023/07/27 05:29:07;;;;;;;;;;;16.90;99.90;;;;;;4997104;28;20000;-69
2023/07/27 05:31:35;;;;;;;;;;;16.90;99.90;;;;;;4993824;28;20494;-71
2023/07/27 05:34:04;;;;;;;;;;;16.90;99.90;;;;;;5000304;28;19929;-71
2023/07/27 05:36:32;;;;;;;;;;;16.90;99.90;;;;;;4998070;28;19929;-72
2023/07/27 05:39:00;;;;;;;;;;;16.90;99.90;;;;;;5000798;28;19929;-71
2023/07/27 05:41:28;;;;;;;;;;;16.90;99.90;;;;;;4996649;28;19930;-71
2023/07/27 05:43:56;;;;;;;;;;;16.90;99.90;;;;;;4998798;28;19933;-71
2023/07/27 05:46:23;;;;;;;;;;;16.80;99.90;;;;;;5000010;28;19929;-71
2023/07/27 05:48:51;;;;;;;;;;;16.70;99.90;;;;;;5000678;28;19925;-72
2023/07/27 05:51:20;;;;;;;;;;;16.60;99.90;;;;;;4994242;28;19941;-71
2023/07/27 05:53:48;;;;;;;;;;;16.60;99.90;;;;;;5000215;28;20377;-69
2023/07/27 05:56:16;;;;;;;;;;;16.60;99.90;;;;;;5002764;28;20312;-68
2023/07/27 05:58:44;;;;;;;;;;;16.50;99.90;;;;;;5008140;28;19925;-68
2023/07/27 06:01:11;;;;;;;;;;;16.40;99.90;;;;;;4993755;28;19979;-69
2023/07/27 06:03:39;;;;;;;;;;;16.30;99.90;;;;;;4993943;28;19967;-69
2023/07/27 06:06:09;;;;;;;;;;;16.20;99.90;;;;;;4994232;28;19925;-69
2023/07/27 06:08:38;;;;;;;;;;;16.10;99.90;;;;;;4994534;28;19922;-68
2023/07/27 06:11:09;;;;;;;;;;;16.00;99.90;;;;;;4993908;28;19921;-69
2023/07/27 06:13:37;;;;;;;;;;;16.00;99.90;;;;;;4986696;28;19922;-69
2023/07/27 06:16:05;;;;;;;;;;;16.00;99.90;;;;;;4994003;28;19930;-69
2023/07/27 06:18:33;;;;;;;;;;;15.90;99.90;;;;;;4986337;28;19928;-69
2023/07/27 06:21:00;;;;;;;;;;;15.90;99.90;;;;;;4994129;28;19922;-69
2023/07/27 06:23:28;;;;;;;;;;;16.00;99.90;;;;;;4993501;28;19922;-69
2023/07/27 06:25:57;;;;;;;;;;;16.00;99.90;;;;;;4994036;28;20384;-69
2023/07/27 06:28:25;;;;;;;;;;;16.00;99.90;;;;;;4999950;28;19929;-69
2023/07/27 06:30:53;;;;;;;;;;;16.00;99.90;;;;;;4999022;28;19929;-69
2023/07/27 06:33:21;;;;;;;;;;;16.00;99.90;;;;;;4990706;28;19928;-70
2023/07/27 06:35:49;;;;;;;;;;;16.00;99.90;;;;;;4992405;28;19922;-69
2023/07/27 06:38:17;;;;;;;;;;;16.00;99.90;;;;;;4993325;28;20105;-69
2023/07/27 06:40:45;;;;;;;;;;;16.00;99.90;;;;;;4991639;28;19922;-70
2023/07/27 06:43:14;;;;;;;;;;;16.00;99.90;;;;;;4992891;28;20464;-70
2023/07/27 06:45:42;;;;;;;;;;;16.00;99.90;;;;;;4993222;28;20393;-71
2023/07/27 06:48:09;;;;;;;;;;;16.00;99.90;;;;;;4993326;28;20396;-71
2023/07/27 06:50:37;;;;;;;;;;;16.00;99.90;;;;;;4993260;28;19929;-69
2023/07/27 06:53:05;;;;;;;;;;;16.00;99.90;;;;;;4993307;28;20340;-69
2023/07/27 06:55:33;;;;;;;;;;;16.00;99.90;;;;;;4993407;28;19921;-69
2023/07/27 06:58:01;;;;;;;;;;;16.00;99.90;;;;;;4993256;28;19922;-68
2023/07/27 07:00:31;;;;;;;;;;;16.10;99.90;;;;;;4992904;28;20305;-69
2023/07/27 07:03:00;;;;;;;;;;;16.20;99.90;;;;;;5000040;28;19925;-69
2023/07/27 07:05:28;;;;;;;;;;;16.20;99.90;;;;;;5001948;28;19965;-69
2023/07/27 07:07:56;;;;;;;;;;;16.20;99.90;;;;;;4993218;28;19922;-69
2023/07/27 07:10:24;;;;;;;;;;;16.20;99.90;;;;;;4993084;28;19922;-69
2023/07/27 07:12:52;;;;;;;;;;;16.10;99.90;;;;;;4993147;28;19921;-69
2023/07/27 07:15:20;;;;;;;;;;;16.00;99.90;;;;;;4992946;28;19922;-69
2023/07/27 07:17:49;;;;;;;;;;;16.00;99.90;;;;;;4993252;28;20331;-69
2023/07/27 07:20:17;;;;;;;;;;;15.90;99.90;;;;;;4992657;28;19925;-70
2023/07/27 07:22:45;;;;;;;;;;;15.90;99.90;;;;;;4993092;28;19922;-70
2023/07/27 07:25:13;;;;;;;;;;;15.90;99.90;;;;;;4993004;28;19976;-69
2023/07/27 07:27:40;;;;;;;;;;;15.70;99.90;;;;;;4992952;28;19926;-70
2023/07/27 07:30:09;;;;;;;;;;;15.70;99.90;;;;;;4992803;28;20336;-70
2023/07/27 07:32:36;;;;;;;;;;;15.70;99.90;;;;;;4988865;28;19922;-70
2023/07/27 07:35:06;;;;;;;;;;;15.60;99.90;;;;;;5004360;28;19968;-70
2023/07/27 07:37:38;;;;;;;;;;;15.50;99.90;;;;;;4985228;28;19921;-70
2023/07/27 07:40:06;;;;;;;;;;;15.50;99.90;;;;;;4992635;28;19933;-70
2023/07/27 07:42:34;;;;;;;;;;;15.60;99.90;;;;;;4984512;28;19922;-70
2023/07/27 07:45:02;;;;;;;;;;;15.60;99.90;;;;;;4992670;28;19928;-70
2023/07/27 07:47:30;;;;;;;;;;;15.60;99.90;;;;;;4992288;28;19929;-70
2023/07/27 07:49:59;;;;;;;;;;;15.60;99.90;;;;;;4992637;28;19928;-70
2023/07/27 07:52:28;;;;;;;;;;;15.60;99.90;;;;;;4991934;28;19921;-70
2023/07/27 07:54:57;;;;;;;;;;;15.60;99.90;;;;;;4992165;28;19922;-70
2023/07/27 07:57:25;;;;;;;;;;;15.50;99.90;;;;;;4992174;28;19929;-70
2023/07/27 07:59:53;;;;;;;;;;;15.50;99.90;;;;;;4992439;28;20385;-70
2023/07/27 08:02:20;;;;;;;;;;;15.50;99.90;;;;;;4991933;28;19926;-70
2023/07/27 08:04:48;;;;;;;;;;;15.50;99.90;;;;;;4997330;28;20459;-69
2023/07/27 08:07:16;;;;;;;;;;;15.50;99.90;;;;;;4994812;28;19925;-70
2023/07/27 08:09:45;;;;;;;;;;;15.50;99.90;;;;;;4992344;28;19944;-69
2023/07/27 08:12:13;;;;;;;;;;;15.50;99.90;;;;;;4992036;28;20380;-70
2023/07/27 08:14:41;;;;;;;;;;;15.40;99.90;;;;;;4992050;28;19925;-70
2023/07/27 08:17:09;;;;;;;;;;;15.40;99.90;;;;;;4992015;28;20385;-69
2023/07/27 08:19:37;;;;;;;;;;;15.30;99.90;;;;;;4992138;28;19922;-69
2023/07/27 08:22:06;;;;;;;;;;;15.30;99.90;;;;;;4992195;28;20004;-70
2023/07/27 08:24:33;;;;;;;;;;;15.30;99.90;;;;;;4991840;28;19921;-70
2023/07/27 08:27:04;;;;;;;;;;;15.30;99.90;;;;;;4992242;28;19988;-70
2023/07/27 08:29:32;;;;;;;;;;;15.30;99.90;;;;;;4991900;28;19944;-70
2023/07/27 08:32:02;;;;;;;;;;;15.30;99.90;;;;;;4991950;28;19921;-70
2023/07/27 08:34:30;;;;;;;;;;;15.20;99.90;;;;;;5010426;28;20296;-70
2023/07/27 08:36:58;;;;;;;;;;;15.20;99.90;;;;;;4997040;28;19976;-70
2023/07/27 08:39:26;;;;;;;;;;;15.20;99.90;;;;;;4991741;28;19926;-71
2023/07/27 08:41:53;;;;;;;;;;;15.10;99.90;;;;;;4991855;28;19929;-70
2023/07/27 08:44:22;;;;;;;;;;;15.10;99.90;;;;;;4991502;28;19932;-70
2023/07/27 08:46:51;;;;;;;;;;;15.10;99.90;;;;;;4991849;28;19925;-70
2023/07/27 08:49:19;;;;;;;;;;;15.10;99.90;;;;;;4991907;28;19973;-70
2023/07/27 08:51:47;;;;;;;;;;;15.20;99.90;;;;;;4991688;28;19929;-70
2023/07/27 08:54:15;;;;;;;;;;;15.10;99.90;;;;;;4991656;28;19921;-71
2023/07/27 08:56:43;;;;;;;;;;;15.20;99.90;;;;;;4991594;28;19929;-69
2023/07/27 08:59:11;;;;;;;;;;;15.20;99.90;;;;;;4991932;28;19921;-70
2023/07/27 09:01:41;;;;;;;;;;;15.30;99.90;;;;;;4991840;28;19926;-70
2023/07/27 09:04:08;;;;;;;;;;;15.30;99.90;;;;;;4999103;28;20383;-69
2023/07/27 09:06:40;;;;;;;;;;;15.30;99.90;;;;;;5001704;28;19928;-69
2023/07/27 09:09:14;;;;;;;;;;;15.20;99.90;;;;;;4995534;28;19922;-69
2023/07/27 09:11:43;;;;;;;;;;;15.30;99.90;;;;;;4988139;28;19926;-69
2023/07/27 09:14:13;;;;;;;;;;;15.30;99.90;;;;;;4995114;28;19936;-70
2023/07/27 09:16:44;;;;;;;;;;;15.30;99.90;;;;;;4995317;28;20335;-70
2023/07/27 09:19:12;;;;;;;;;;;15.30;99.90;;;;;;4995383;28;19926;-69
2023/07/27 09:21:40;;;;;;;;;;;15.30;99.90;;;;;;4995327;28;19922;-70
2023/07/27 09:24:11;;;;;;;;;;;15.40;99.90;;;;;;4995092;28;19956;-70
2023/07/27 09:26:46;;;;;;;;;;;15.40;99.90;;;;;;4995148;28;19921;-70
2023/07/27 09:29:15;;;;;;;;;;;15.40;99.90;;;;;;4995027;28;19927;-69
2023/07/27 09:31:48;;;;;;;;;;;15.40;99.90;;;;;;4995252;28;19922;-68
2023/07/27 09:34:16;;;;;;;;;;;15.50;99.90;;;;;;5003273;28;19921;-70
2023/07/27 09:36:44;;;;;;;;;;;15.40;99.90;;;;;;5002063;28;19975;-68
2023/07/27 09:39:13;;;;;;;;;;;15.40;99.90;;;;;;4994984;28;19948;-69
2023/07/27 09:41:42;;;;;;;;;;;15.40;99.90;;;;;;4987336;28;19929;-70
2023/07/27 09:44:13;;;;;;;;;;;15.50;99.90;;;;;;4994843;28;19925;-70
2023/07/27 09:46:41;;;;;;;;;;;15.50;99.90;;;;;;4987094;28;19922;-69
2023/07/27 09:49:10;;;;;;;;;;;15.50;99.90;;;;;;4994952;28;19921;-70
2023/07/27 09:51:38;;;;;;;;;;;15.60;99.90;;;;;;4994593;28;20355;-70
2023/07/27 09:54:06;;;;;;;;;;;15.60;99.90;;;;;;4994658;28;19922;-69
2023/07/27 09:56:34;;;;;;;;;;;15.60;99.90;;;;;;4994080;28;20016;-69
2023/07/27 09:59:02;;;;;;;;;;;15.60;99.90;;;;;;4994989;28;19926;-70
2023/07/27 10:01:30;;;;;;;;;;;15.70;99.90;;;;;;4994276;28;19921;-69
2023/07/27 10:03:58;;;;;;;;;;;15.70;99.90;;;;;;5002760;28;19929;-69
2023/07/27 10:06:28;;;;;;;;;;;15.70;99.90;;;;;;5001942;28;20389;-69
2023/07/27 10:08:56;;;;;;;;;;;15.70;99.90;;;;;;4994587;28;20393;-70
2023/07/27 10:11:31;;;;;;;;;;;15.70;99.90;;;;;;4994251;28;19929;-69
2023/07/27 10:14:13;;;;;;;;;;;15.80;99.90;;;;;;4994288;28;19926;-69
2023/07/27 10:16:41;;;;;;;;;;;15.80;99.90;;;;;;4986641;28;19921;-69
2023/07/27 10:19:10;;;;;;;;;;;15.80;99.90;;;;;;4993687;28;19949;-69
2023/07/27 10:21:47;;;;;;;;;;;15.80;99.90;;;;;;4994041;28;19933;-69
2023/07/27 10:24:20;;;;;;;;;;;15.90;99.90;;;;;;4994015;28;19921;-69
2023/07/27 10:26:50;;;;;;;;;;;15.90;99.90;;;;;;4993823;28;19957;-69
2023/07/27 10:29:20;;;;;;;;;;;16.00;99.90;;;;;;4993925;28;19922;-69
2023/07/27 10:32:00;;;;;;;;;;;16.00;99.90;;;;;;4993997;28;19922;-69
2023/07/27 10:34:28;;;;;;;;;;;16.00;99.90;;;;;;5011574;28;19933;-68
2023/07/27 10:37:06;;;;;;;;;;;16.00;99.90;;;;;;4998372;28;20385;-69
2023/07/27 10:39:35;;;;;;;;;;;16.00;99.90;;;;;;4993449;28;19930;-70
2023/07/27 10:42:04;;;;;;;;;;;16.00;99.90;;;;;;4993716;28;19929;-70
2023/07/27 10:44:40;;;;;;;;;;;16.00;99.90;;;;;;4993751;28;19926;-70
2023/07/27 10:47:09;;;;;;;;;;;16.10;99.90;;;;;;4993506;28;19922;-70
2023/07/27 10:49:40;;;;;;;;;;;16.10;99.90;;;;;;4993402;28;20008;-69
2023/07/27 10:52:10;;;;;;;;;;;16.10;99.90;;;;;;4994458;28;19921;-70
2023/07/27 10:54:39;;;;;;;;;;;16.00;99.90;;;;;;4993500;28;19922;-69
2023/07/27 10:57:07;;;;;;;;;;;16.00;99.90;;;;;;4993148;28;19925;-70
2023/07/27 10:59:36;;;;;;;;;;;16.10;99.90;;;;;;4993398;28;19930;-70
2023/07/27 11:02:05;;;;;;;;;;;16.10;99.90;;;;;;4993309;28;19926;-69
2023/07/27 11:04:35;;;;;;;;;;;16.00;99.90;;;;;;5003619;28;20384;-70
2023/07/27 11:07:02;;;;;;;;;;;16.00;99.90;;;;;;4998333;28;20304;-70
2023/07/27 11:09:32;;;;;;;;;;;16.00;99.90;;;;;;4993324;28;19925;-70
2023/07/27 11:12:01;;;;;;;;;;;16.00;99.90;;;;;;4993137;28;19922;-70
2023/07/27 11:14:29;;;;;;;;;;;16.00;99.90;;;;;;4992999;28;19921;-71
2023/07/27 11:16:56;;;;;;;;;;;16.00;99.90;;;;;;4993250;28;19929;-71
2023/07/27 11:19:26;;;;;;;;;;;16.00;99.90;;;;;;4993021;28;19922;-70
2023/07/27 11:21:55;;;;;;;;;;;16.00;99.90;;;;;;4992596;28;19925;-69
2023/07/27 11:24:22;;;;;;;;;;;16.00;99.90;;;;;;4992898;28;19921;-69
2023/07/27 11:26:51;;;;;;;;;;;16.00;99.90;;;;;;4992802;28;19929;-69
2023/07/27 11:29:20;;;;;;;;;;;16.00;99.90;;;;;;4991722;28;19980;-70
2023/07/27 11:31:54;;;;;;;;;;;16.10;99.90;;;;;;4992631;28;20365;-70
2023/07/27 11:34:22;;;;;;;;;;;16.10;99.90;;;;;;5009594;28;19928;-69
2023/07/27 11:36:51;;;;;;;;;;;16.10;99.90;;;;;;4999505;28;19922;-69
2023/07/27 11:39:19;;;;;;;;;;;16.20;99.90;;;;;;4992418;28;19921;-70
2023/07/27 11:41:48;;;;;;;;;;;16.20;99.90;;;;;;4992467;28;19921;-68
2023/07/27 11:44:17;;;;;;;;;;;16.20;99.90;;;;;;4992888;28;19929;-69
2023/07/27 11:46:47;;;;;;;;;;;16.20;99.90;;;;;;4992590;28;19926;-69
2023/07/27 11:49:15;;;;;;;;;;;16.20;99.90;;;;;;4992426;28;19925;-69
2023/07/27 11:51:45;;;;;;;;;;;16.20;99.90;;;;;;4992268;28;20448;-70
2023/07/27 11:54:21;;;;;;;;;;;16.20;99.90;;;;;;4992453;28;20381;-69
2023/07/27 11:56:50;;;;;;;;;;;16.20;99.90;;;;;;4985456;28;19922;-69
2023/07/27 11:59:20;;;;;;;;;;;16.20;99.90;;;;;;4992265;28;20303;-68
2023/07/27 12:01:49;;;;;;;;;;;16.20;99.90;;;;;;4992371;28;19922;-69
2023/07/27 12:04:17;;;;;;;;;;;16.10;99.90;;;;;;5008353;28;19929;-69
2023/07/27 12:06:45;;;;;;;;;;;16.20;99.90;;;;;;4999636;28;20415;-69
2023/07/27 12:09:13;;;;;;;;;;;16.20;99.90;;;;;;4992294;28;20363;-69
2023/07/27 12:11:41;;;;;;;;;;;16.20;99.90;;;;;;4991978;28;20377;-69
2023/07/27 12:14:09;;;;;;;;;;;16.10;99.90;;;;;;4992307;28;19929;-69
2023/07/27 12:16:39;;;;;;;;;;;16.20;99.90;;;;;;4991975;28;19941;-69
2023/07/27 12:19:10;;;;;;;;;;;16.20;99.90;;;;;;4992688;28;19928;-69
2023/07/27 12:21:38;;;;;;;;;;;16.20;99.90;;;;;;4991722;28;20284;-70
2023/07/27 12:24:08;;;;;;;;;;;16.20;99.90;;;;;;4992040;28;19929;-70
2023/07/27 12:26:39;;;;;;;;;;;16.20;99.90;;;;;;4991621;28;19953;-70
2023/07/27 12:29:09;;;;;;;;;;;16.20;99.90;;;;;;4992282;28;20214;-69
2023/07/27 12:31:41;;;;;;;;;;;16.30;99.90;;;;;;4991765;28;19922;-71
2023/07/27 12:34:12;;;;;;;;;;;16.20;99.90;;;;;;4990472;28;19929;-71
2023/07/27 12:36:44;;;;;;;;;;;16.20;99.90;;;;;;4987019;28;20384;-71
2023/07/27 12:39:32;;;;;;;;;;;16.30;99.90;;;;;;4991532;28;19977;-70
2023/07/27 12:42:00;;;;;;;;;;;16.30;99.90;;;;;;4994352;28;20332;-71
2023/07/27 12:44:31;;;;;;;;;;;16.40;99.90;;;;;;4995632;28;19929;-70
2023/07/27 12:47:00;;;;;;;;;;;16.40;99.90;;;;;;4995745;28;19922;-71
2023/07/27 12:49:27;;;;;;;;;;;16.50;99.90;;;;;;4995534;28;19928;-71
2023/07/27 12:51:55;;;;;;;;;;;16.60;99.90;;;;;;4995171;28;20411;-71
2023/07/27 12:54:23;;;;;;;;;;;16.60;99.90;;;;;;4995418;28;19934;-70
2023/07/27 12:56:51;;;;;;;;;;;16.60;99.90;;;;;;4995497;28;20405;-70
2023/07/27 12:59:18;;;;;;;;;;;16.60;99.90;;;;;;4995485;28;19928;-70
2023/07/27 13:01:46;;;;;;;;;;;16.60;99.90;;;;;;4995221;28;19929;-70
2023/07/27 13:04:15;;;;;;;;;;;16.50;99.90;;;;;;5003184;28;20378;-70
2023/07/27 13:06:43;;;;;;;;;;;16.60;99.90;;;;;;5011521;28;19921;-71
2023/07/27 13:09:11;;;;;;;;;;;16.60;99.90;;;;;;4995765;28;20274;-71
2023/07/27 13:11:39;;;;;;;;;;;16.60;99.90;;;;;;4994911;28;19936;-71
2023/07/27 13:14:07;;;;;;;;;;;16.60;99.90;;;;;;4995276;28;19921;-71
2023/07/27 13:16:34;;;;;;;;;;;16.60;99.90;;;;;;4994874;28;20412;-71
2023/07/27 13:19:04;;;;;;;;;;;16.60;99.90;;;;;;4995531;28;20016;-71
2023/07/27 13:21:33;;;;;;;;;;;16.70;99.90;;;;;;4995034;28;19961;-71
2023/07/27 13:24:02;;;;;;;;;;;16.60;99.90;;;;;;4995327;28;19922;-72
2023/07/27 13:26:29;;;;;;;;;;;16.60;99.90;;;;;;4994927;28;19976;-71
2023/07/27 13:28:57;;;;;;;;;;;16.70;99.90;;;;;;4995179;28;19921;-71
2023/07/27 13:31:26;;;;;;;;;;;16.80;99.90;;;;;;4994832;28;20372;-71
2023/07/27 13:33:54;;;;;;;;;;;16.80;99.90;;;;;;4999820;28;19921;-72
2023/07/27 13:36:22;;;;;;;;;;;16.80;99.90;;;;;;5005621;28;19965;-72
2023/07/27 13:38:51;;;;;;;;;;;16.80;99.90;;;;;;4995097;28;19922;-71
2023/07/27 13:41:19;;;;;;;;;;;16.80;99.90;;;;;;4994597;28;20308;-72
2023/07/27 13:43:54;;;;;;;;;;;16.80;99.90;;;;;;4994709;28;20328;-71
2023/07/27 13:46:24;;;;;;;;;;;16.90;99.90;;;;;;4994633;28;19925;-71
2023/07/27 13:48:52;;;;;;;;;;;16.90;99.90;;;;;;4995003;28;19932;-71
2023/07/27 13:51:19;;;;;;;;;;;16.90;99.90;;;;;;4994371;28;19921;-71
2023/07/27 13:53:47;;;;;;;;;;;16.90;99.90;;;;;;4993277;28;19922;-72
2023/07/27 13:56:16;;;;;;;;;;;16.90;99.90;;;;;;4994512;28;19922;-72
2023/07/27 13:58:44;;;;;;;;;;;17.00;99.90;;;;;;4994532;28;19922;-71
2023/07/27 14:01:12;;;;;;;;;;;17.00;99.90;;;;;;4994632;28;19921;-71
2023/07/27 14:03:40;;;;;;;;;;;17.00;99.90;;;;;;4996691;28;19936;-71
2023/07/27 14:06:07;;;;;;;;;;;17.10;99.90;;;;;;5007293;28;19976;-71
2023/07/27 14:08:35;;;;;;;;;;;17.20;99.90;;;;;;4994213;28;19925;-71
2023/07/27 14:11:03;;;;;;;;;;;17.30;99.90;;;;;;4994497;28;20006;-71
2023/07/27 14:13:32;;;;;;;;;;;17.40;99.90;;;;;;4993921;28;19922;-71
2023/07/27 14:16:00;;;;;;;;;;;17.50;99.90;;;;;;4994559;28;20357;-71
2023/07/27 14:18:28;;;;;;;;;;;17.60;99.90;;;;;;4994164;28;19932;-71
2023/07/27 14:20:55;;;;;;;;;;;17.70;99.90;;;;;;4994573;28;19926;-72
2023/07/27 14:23:23;;;;;;;;;;;17.70;99.90;;;;;;4993816;28;19922;-72
2023/07/27 14:25:52;;;;;;;;;;;17.70;99.90;;;;;;4994077;28;19984;-72